sensor_id;sensor_type;location;lat;lon;timestamp;P1;durP1;ratioP1;P2;durP2;ratioP2
17832;SDS011;9041;49.718;21.798;2023-02-08T00:00:32;49.30;;;19.87;;
17832;SDS011;9041;49.718;21.798;2023-02-08T00:03:00;52.13;;;19.43;;
17832;SDS011;9041;49.718;21.798;2023-02-08T00:05:27;68.37;;;25.13;;
17832;SDS011;9041;49.718;21.798;2023-02-08T00:07:54;67.90;;;24.10;;
17832;SDS011;9041;49.718;21.798;2023-02-08T00:10:21;75.33;;;26.87;;
17832;SDS011;9041;49.718;21.798;2023-02-08T00:12:48;71.83;;;26.53;;
17832;SDS011;9041;49.718;21.798;2023-02-08T00:15:16;78.80;;;28.73;;
17832;SDS011;9041;49.718;21.798;2023-02-08T00:17:43;68.40;;;26.30;;
17832;SDS011;9041;49.718;21.798;2023-02-08T00:20:12;54.30;;;20.50;;
17832;SDS011;9041;49.718;21.798;2023-02-08T00:22:39;65.53;;;23.03;;
17832;SDS011;9041;49.718;21.798;2023-02-08T00:25:06;50.50;;;18.90;;
17832;SDS011;9041;49.718;21.798;2023-02-08T00:27:33;49.67;;;19.70;;
17832;SDS011;9041;49.718;21.798;2023-02-08T00:30:00;56.47;;;20.97;;
17832;SDS011;9041;49.718;21.798;2023-02-08T00:32:27;52.53;;;18.27;;
17832;SDS011;9041;49.718;21.798;2023-02-08T00:34:53;63.70;;;22.47;;
17832;SDS011;9041;49.718;21.798;2023-02-08T00:37:21;66.57;;;24.03;;
17832;SDS011;9041;49.718;21.798;2023-02-08T00:39:48;65.67;;;22.83;;
17832;SDS011;9041;49.718;21.798;2023-02-08T00:42:16;45.80;;;16.63;;
17832;SDS011;9041;49.718;21.798;2023-02-08T00:44:44;32.60;;;12.13;;
17832;SDS011;9041;49.718;21.798;2023-02-08T00:47:10;35.43;;;13.13;;
17832;SDS011;9041;49.718;21.798;2023-02-08T00:49:37;34.80;;;14.03;;
17832;SDS011;9041;49.718;21.798;2023-02-08T00:52:04;33.33;;;12.10;;
17832;SDS011;9041;49.718;21.798;2023-02-08T00:54:32;33.47;;;12.50;;
17832;SDS011;9041;49.718;21.798;2023-02-08T00:56:59;36.60;;;13.13;;
17832;SDS011;9041;49.718;21.798;2023-02-08T00:59:26;36.20;;;13.30;;
17832;SDS011;9041;49.718;21.798;2023-02-08T01:01:52;29.37;;;11.97;;
17832;SDS011;9041;49.718;21.798;2023-02-08T01:04:19;36.00;;;13.83;;
17832;SDS011;9041;49.718;21.798;2023-02-08T01:06:46;33.03;;;11.90;;
17832;SDS011;9041;49.718;21.798;2023-02-08T01:09:12;28.67;;;11.50;;
17832;SDS011;9041;49.718;21.798;2023-02-08T01:11:41;31.97;;;12.93;;
17832;SDS011;9041;49.718;21.798;2023-02-08T01:14:07;29.10;;;12.20;;
17832;SDS011;9041;49.718;21.798;2023-02-08T01:16:35;32.07;;;12.03;;
17832;SDS011;9041;49.718;21.798;2023-02-08T01:19:02;27.93;;;11.97;;
17832;SDS011;9041;49.718;21.798;2023-02-08T01:21:30;30.37;;;12.00;;
17832;SDS011;9041;49.718;21.798;2023-02-08T01:23:58;28.83;;;10.70;;
17832;SDS011;9041;49.718;21.798;2023-02-08T01:26:26;29.50;;;11.53;;
17832;SDS011;9041;49.718;21.798;2023-02-08T01:28:55;27.13;;;9.37;;
17832;SDS011;9041;49.718;21.798;2023-02-08T01:31:22;33.67;;;11.23;;
17832;SDS011;9041;49.718;21.798;2023-02-08T01:33:50;34.40;;;11.37;;
17832;SDS011;9041;49.718;21.798;2023-02-08T01:36:17;25.33;;;11.00;;
17832;SDS011;9041;49.718;21.798;2023-02-08T01:38:44;29.90;;;11.50;;
17832;SDS011;9041;49.718;21.798;2023-02-08T01:41:12;29.30;;;12.30;;
17832;SDS011;9041;49.718;21.798;2023-02-08T01:46:32;31.57;;;11.77;;
17832;SDS011;9041;49.718;21.798;2023-02-08T01:49:01;33.13;;;11.93;;
17832;SDS011;9041;49.718;21.798;2023-02-08T01:51:29;31.57;;;12.23;;
17832;SDS011;9041;49.718;21.798;2023-02-08T01:53:58;32.37;;;12.60;;
17832;SDS011;9041;49.718;21.798;2023-02-08T01:56:27;38.30;;;13.43;;
17832;SDS011;9041;49.718;21.798;2023-02-08T01:58:57;32.97;;;11.43;;
17832;SDS011;9041;49.718;21.798;2023-02-08T02:01:27;27.83;;;12.00;;
17832;SDS011;9041;49.718;21.798;2023-02-08T02:03:55;31.27;;;12.23;;
17832;SDS011;9041;49.718;21.798;2023-02-08T02:06:23;36.33;;;13.80;;
17832;SDS011;9041;49.718;21.798;2023-02-08T02:08:54;35.13;;;12.87;;
17832;SDS011;9041;49.718;21.798;2023-02-08T02:11:28;34.23;;;12.70;;
17832;SDS011;9041;49.718;21.798;2023-02-08T02:13:55;31.97;;;13.43;;
17832;SDS011;9041;49.718;21.798;2023-02-08T02:16:23;35.23;;;13.17;;
17832;SDS011;9041;49.718;21.798;2023-02-08T02:18:51;38.33;;;12.67;;
17832;SDS011;9041;49.718;21.798;2023-02-08T02:21:23;32.67;;;13.53;;
17832;SDS011;9041;49.718;21.798;2023-02-08T02:24:30;31.87;;;12.73;;
17832;SDS011;9041;49.718;21.798;2023-02-08T02:27:24;34.10;;;13.53;;
17832;SDS011;9041;49.718;21.798;2023-02-08T02:30:02;40.83;;;14.20;;
17832;SDS011;9041;49.718;21.798;2023-02-08T02:32:52;33.27;;;13.63;;
17832;SDS011;9041;49.718;21.798;2023-02-08T02:35:24;36.93;;;13.67;;
17832;SDS011;9041;49.718;21.798;2023-02-08T02:37:58;32.87;;;13.67;;
17832;SDS011;9041;49.718;21.798;2023-02-08T02:40:31;30.23;;;13.17;;
17832;SDS011;9041;49.718;21.798;2023-02-08T02:43:07;35.60;;;13.27;;
17832;SDS011;9041;49.718;21.798;2023-02-08T02:46:07;38.57;;;14.80;;
17832;SDS011;9041;49.718;21.798;2023-02-08T02:48:41;42.77;;;15.43;;
17832;SDS011;9041;49.718;21.798;2023-02-08T02:51:11;43.90;;;15.87;;
17832;SDS011;9041;49.718;21.798;2023-02-08T02:53:43;40.13;;;15.30;;
17832;SDS011;9041;49.718;21.798;2023-02-08T02:56:14;42.57;;;15.50;;
17832;SDS011;9041;49.718;21.798;2023-02-08T02:58:44;40.40;;;14.63;;
17832;SDS011;9041;49.718;21.798;2023-02-08T03:01:11;35.00;;;14.70;;
17832;SDS011;9041;49.718;21.798;2023-02-08T03:03:38;44.07;;;15.50;;
17832;SDS011;9041;49.718;21.798;2023-02-08T03:06:08;42.13;;;13.90;;
17832;SDS011;9041;49.718;21.798;2023-02-08T03:08:47;39.83;;;15.47;;
17832;SDS011;9041;49.718;21.798;2023-02-08T03:11:21;41.83;;;15.87;;
17832;SDS011;9041;49.718;21.798;2023-02-08T03:14:03;34.40;;;13.20;;
17832;SDS011;9041;49.718;21.798;2023-02-08T03:16:42;34.03;;;13.80;;
17832;SDS011;9041;49.718;21.798;2023-02-08T03:19:26;36.50;;;13.53;;
17832;SDS011;9041;49.718;21.798;2023-02-08T03:21:57;37.27;;;14.70;;
17832;SDS011;9041;49.718;21.798;2023-02-08T03:24:28;33.77;;;12.77;;
17832;SDS011;9041;49.718;21.798;2023-02-08T03:26:57;31.17;;;13.53;;
17832;SDS011;9041;49.718;21.798;2023-02-08T03:29:32;35.23;;;13.13;;
17832;SDS011;9041;49.718;21.798;2023-02-08T03:32:05;35.00;;;12.93;;
17832;SDS011;9041;49.718;21.798;2023-02-08T03:34:40;28.47;;;11.73;;
17832;SDS011;9041;49.718;21.798;2023-02-08T03:37:12;26.97;;;10.67;;
17832;SDS011;9041;49.718;21.798;2023-02-08T03:39:40;21.60;;;9.63;;
17832;SDS011;9041;49.718;21.798;2023-02-08T03:42:09;27.73;;;11.40;;
17832;SDS011;9041;49.718;21.798;2023-02-08T03:44:39;25.27;;;10.37;;
17832;SDS011;9041;49.718;21.798;2023-02-08T03:47:08;25.47;;;11.00;;
17832;SDS011;9041;49.718;21.798;2023-02-08T03:49:37;26.87;;;10.30;;
17832;SDS011;9041;49.718;21.798;2023-02-08T03:52:07;30.13;;;10.90;;
17832;SDS011;9041;49.718;21.798;2023-02-08T03:54:36;30.13;;;11.63;;
17832;SDS011;9041;49.718;21.798;2023-02-08T03:57:05;29.67;;;10.77;;
17832;SDS011;9041;49.718;21.798;2023-02-08T03:59:36;31.87;;;11.77;;
17832;SDS011;9041;49.718;21.798;2023-02-08T04:02:06;27.00;;;10.93;;
17832;SDS011;9041;49.718;21.798;2023-02-08T04:04:37;25.23;;;11.07;;
17832;SDS011;9041;49.718;21.798;2023-02-08T04:07:07;25.13;;;10.00;;
17832;SDS011;9041;49.718;21.798;2023-02-08T04:09:34;30.43;;;10.93;;
17832;SDS011;9041;49.718;21.798;2023-02-08T04:12:01;27.53;;;10.87;;
17832;SDS011;9041;49.718;21.798;2023-02-08T04:14:28;26.57;;;11.17;;
17832;SDS011;9041;49.718;21.798;2023-02-08T04:16:54;22.00;;;9.10;;
17832;SDS011;9041;49.718;21.798;2023-02-08T04:19:21;23.23;;;9.10;;
17832;SDS011;9041;49.718;21.798;2023-02-08T04:21:50;23.13;;;9.10;;
17832;SDS011;9041;49.718;21.798;2023-02-08T04:24:16;21.00;;;9.00;;
17832;SDS011;9041;49.718;21.798;2023-02-08T04:26:43;25.30;;;9.33;;
17832;SDS011;9041;49.718;21.798;2023-02-08T04:29:09;21.20;;;8.50;;
17832;SDS011;9041;49.718;21.798;2023-02-08T04:31:36;22.30;;;9.10;;
17832;SDS011;9041;49.718;21.798;2023-02-08T04:34:04;21.13;;;7.50;;
17832;SDS011;9041;49.718;21.798;2023-02-08T04:36:30;19.77;;;7.83;;
17832;SDS011;9041;49.718;21.798;2023-02-08T04:38:59;21.13;;;8.33;;
17832;SDS011;9041;49.718;21.798;2023-02-08T04:41:26;17.43;;;7.50;;
17832;SDS011;9041;49.718;21.798;2023-02-08T04:43:52;18.90;;;8.03;;
17832;SDS011;9041;49.718;21.798;2023-02-08T04:46:19;20.77;;;8.27;;
17832;SDS011;9041;49.718;21.798;2023-02-08T04:48:46;14.77;;;7.27;;
17832;SDS011;9041;49.718;21.798;2023-02-08T04:51:13;18.97;;;7.87;;
17832;SDS011;9041;49.718;21.798;2023-02-08T04:53:39;17.40;;;7.40;;
17832;SDS011;9041;49.718;21.798;2023-02-08T04:56:07;18.43;;;7.40;;
17832;SDS011;9041;49.718;21.798;2023-02-08T04:58:34;17.57;;;7.00;;
17832;SDS011;9041;49.718;21.798;2023-02-08T05:01:04;14.93;;;6.70;;
17832;SDS011;9041;49.718;21.798;2023-02-08T05:03:31;13.73;;;7.10;;
17832;SDS011;9041;49.718;21.798;2023-02-08T05:05:58;20.13;;;7.50;;
17832;SDS011;9041;49.718;21.798;2023-02-08T05:08:28;18.73;;;7.83;;
17832;SDS011;9041;49.718;21.798;2023-02-08T05:10:54;18.33;;;8.00;;
17832;SDS011;9041;49.718;21.798;2023-02-08T05:13:22;21.03;;;8.87;;
17832;SDS011;9041;49.718;21.798;2023-02-08T05:15:49;17.90;;;7.07;;
17832;SDS011;9041;49.718;21.798;2023-02-08T05:18:16;18.17;;;7.53;;
17832;SDS011;9041;49.718;21.798;2023-02-08T05:20:43;18.03;;;8.00;;
17832;SDS011;9041;49.718;21.798;2023-02-08T05:23:09;14.50;;;6.03;;
17832;SDS011;9041;49.718;21.798;2023-02-08T05:25:37;15.03;;;6.83;;
17832;SDS011;9041;49.718;21.798;2023-02-08T05:28:04;18.00;;;7.57;;
17832;SDS011;9041;49.718;21.798;2023-02-08T05:30:32;16.37;;;6.70;;
17832;SDS011;9041;49.718;21.798;2023-02-08T05:32:59;16.73;;;6.90;;
17832;SDS011;9041;49.718;21.798;2023-02-08T05:35:26;17.00;;;6.57;;
17832;SDS011;9041;49.718;21.798;2023-02-08T05:37:52;21.80;;;7.30;;
17832;SDS011;9041;49.718;21.798;2023-02-08T05:40:19;29.13;;;9.90;;
17832;SDS011;9041;49.718;21.798;2023-02-08T05:42:47;25.23;;;10.17;;
17832;SDS011;9041;49.718;21.798;2023-02-08T05:45:14;17.70;;;8.97;;
17832;SDS011;9041;49.718;21.798;2023-02-08T05:47:42;28.87;;;11.43;;
17832;SDS011;9041;49.718;21.798;2023-02-08T05:50:11;20.50;;;8.10;;
17832;SDS011;9041;49.718;21.798;2023-02-08T05:52:38;23.73;;;8.63;;
17832;SDS011;9041;49.718;21.798;2023-02-08T05:55:06;23.10;;;10.33;;
17832;SDS011;9041;49.718;21.798;2023-02-08T05:57:33;25.70;;;9.83;;
17832;SDS011;9041;49.718;21.798;2023-02-08T06:00:01;20.67;;;7.83;;
17832;SDS011;9041;49.718;21.798;2023-02-08T06:02:28;23.87;;;10.40;;
17832;SDS011;9041;49.718;21.798;2023-02-08T06:04:57;29.93;;;10.20;;
17832;SDS011;9041;49.718;21.798;2023-02-08T06:07:24;22.07;;;8.57;;
17832;SDS011;9041;49.718;21.798;2023-02-08T06:09:51;25.03;;;9.67;;
17832;SDS011;9041;49.718;21.798;2023-02-08T06:12:17;28.43;;;11.83;;
17832;SDS011;9041;49.718;21.798;2023-02-08T06:14:49;20.63;;;9.00;;
17832;SDS011;9041;49.718;21.798;2023-02-08T06:17:15;29.10;;;11.57;;
17832;SDS011;9041;49.718;21.798;2023-02-08T06:19:42;21.63;;;10.13;;
17832;SDS011;9041;49.718;21.798;2023-02-08T06:22:10;15.40;;;7.33;;
17832;SDS011;9041;49.718;21.798;2023-02-08T06:24:37;23.67;;;13.10;;
17832;SDS011;9041;49.718;21.798;2023-02-08T06:27:04;16.80;;;8.20;;
17832;SDS011;9041;49.718;21.798;2023-02-08T06:29:31;17.57;;;8.53;;
17832;SDS011;9041;49.718;21.798;2023-02-08T06:31:58;11.33;;;5.23;;
17832;SDS011;9041;49.718;21.798;2023-02-08T06:34:24;27.13;;;14.10;;
17832;SDS011;9041;49.718;21.798;2023-02-08T06:36:51;19.47;;;9.67;;
17832;SDS011;9041;49.718;21.798;2023-02-08T06:39:21;13.67;;;5.90;;
17832;SDS011;9041;49.718;21.798;2023-02-08T06:41:47;16.43;;;7.87;;
17832;SDS011;9041;49.718;21.798;2023-02-08T06:44:14;13.10;;;6.83;;
17832;SDS011;9041;49.718;21.798;2023-02-08T06:46:41;6.10;;;3.17;;
17832;SDS011;9041;49.718;21.798;2023-02-08T06:49:09;11.77;;;4.70;;
17832;SDS011;9041;49.718;21.798;2023-02-08T06:51:36;12.80;;;5.97;;
17832;SDS011;9041;49.718;21.798;2023-02-08T06:54:02;14.77;;;7.00;;
17832;SDS011;9041;49.718;21.798;2023-02-08T06:56:31;15.93;;;7.40;;
17832;SDS011;9041;49.718;21.798;2023-02-08T06:58:57;12.03;;;7.57;;
17832;SDS011;9041;49.718;21.798;2023-02-08T07:01:24;12.13;;;6.00;;
17832;SDS011;9041;49.718;21.798;2023-02-08T07:03:50;15.67;;;7.63;;
17832;SDS011;9041;49.718;21.798;2023-02-08T07:06:18;27.43;;;11.33;;
17832;SDS011;9041;49.718;21.798;2023-02-08T07:08:45;27.97;;;11.20;;
17832;SDS011;9041;49.718;21.798;2023-02-08T07:11:13;24.33;;;9.77;;
17832;SDS011;9041;49.718;21.798;2023-02-08T07:13:44;15.23;;;7.20;;
17832;SDS011;9041;49.718;21.798;2023-02-08T07:16:13;18.97;;;8.27;;
17832;SDS011;9041;49.718;21.798;2023-02-08T07:18:40;19.90;;;9.07;;
17832;SDS011;9041;49.718;21.798;2023-02-08T07:21:08;17.80;;;9.50;;
17832;SDS011;9041;49.718;21.798;2023-02-08T07:23:35;16.70;;;7.10;;
17832;SDS011;9041;49.718;21.798;2023-02-08T07:26:03;16.40;;;7.90;;
17832;SDS011;9041;49.718;21.798;2023-02-08T07:28:31;23.67;;;8.80;;
17832;SDS011;9041;49.718;21.798;2023-02-08T07:30:59;19.77;;;8.53;;
17832;SDS011;9041;49.718;21.798;2023-02-08T07:33:30;13.57;;;7.07;;
17832;SDS011;9041;49.718;21.798;2023-02-08T07:35:57;27.03;;;9.70;;
17832;SDS011;9041;49.718;21.798;2023-02-08T07:38:24;17.60;;;7.70;;
17832;SDS011;9041;49.718;21.798;2023-02-08T07:40:50;15.47;;;6.67;;
17832;SDS011;9041;49.718;21.798;2023-02-08T07:43:17;15.87;;;8.17;;
17832;SDS011;9041;49.718;21.798;2023-02-08T07:45:44;20.33;;;8.40;;
17832;SDS011;9041;49.718;21.798;2023-02-08T07:48:13;14.37;;;7.13;;
17832;SDS011;9041;49.718;21.798;2023-02-08T07:50:40;18.10;;;7.13;;
17832;SDS011;9041;49.718;21.798;2023-02-08T07:53:07;15.87;;;7.23;;
17832;SDS011;9041;49.718;21.798;2023-02-08T07:55:34;11.50;;;6.20;;
17832;SDS011;9041;49.718;21.798;2023-02-08T07:58:00;20.13;;;8.23;;
17832;SDS011;9041;49.718;21.798;2023-02-08T08:00:27;17.53;;;8.40;;
17832;SDS011;9041;49.718;21.798;2023-02-08T08:02:54;13.47;;;6.03;;
17832;SDS011;9041;49.718;21.798;2023-02-08T08:05:22;17.87;;;7.60;;
17832;SDS011;9041;49.718;21.798;2023-02-08T08:07:49;14.77;;;5.93;;
17832;SDS011;9041;49.718;21.798;2023-02-08T08:10:15;13.47;;;6.00;;
17832;SDS011;9041;49.718;21.798;2023-02-08T08:12:42;12.40;;;5.90;;
17832;SDS011;9041;49.718;21.798;2023-02-08T08:15:09;11.53;;;5.37;;
17832;SDS011;9041;49.718;21.798;2023-02-08T08:17:36;20.13;;;8.30;;
17832;SDS011;9041;49.718;21.798;2023-02-08T08:20:10;11.37;;;5.53;;
17832;SDS011;9041;49.718;21.798;2023-02-08T08:22:38;17.27;;;6.13;;
17832;SDS011;9041;49.718;21.798;2023-02-08T08:25:05;13.37;;;6.00;;
17832;SDS011;9041;49.718;21.798;2023-02-08T08:27:31;20.57;;;8.00;;
17832;SDS011;9041;49.718;21.798;2023-02-08T08:29:59;20.10;;;8.73;;
17832;SDS011;9041;49.718;21.798;2023-02-08T08:32:25;13.30;;;5.47;;
17832;SDS011;9041;49.718;21.798;2023-02-08T08:34:52;14.77;;;5.77;;
17832;SDS011;9041;49.718;21.798;2023-02-08T08:37:19;12.93;;;6.27;;
17832;SDS011;9041;49.718;21.798;2023-02-08T08:39:47;15.93;;;6.33;;
17832;SDS011;9041;49.718;21.798;2023-02-08T08:42:15;11.80;;;5.87;;
17832;SDS011;9041;49.718;21.798;2023-02-08T08:44:42;14.07;;;6.70;;
17832;SDS011;9041;49.718;21.798;2023-02-08T08:47:09;14.97;;;6.57;;
17832;SDS011;9041;49.718;21.798;2023-02-08T08:49:36;13.77;;;6.37;;
17832;SDS011;9041;49.718;21.798;2023-02-08T08:52:03;13.80;;;6.50;;
17832;SDS011;9041;49.718;21.798;2023-02-08T08:54:32;26.80;;;9.23;;
17832;SDS011;9041;49.718;21.798;2023-02-08T08:57:00;17.93;;;7.00;;
17832;SDS011;9041;49.718;21.798;2023-02-08T08:59:27;13.70;;;6.13;;
17832;SDS011;9041;49.718;21.798;2023-02-08T09:01:54;11.73;;;5.90;;
17832;SDS011;9041;49.718;21.798;2023-02-08T09:04:20;18.53;;;8.00;;
17832;SDS011;9041;49.718;21.798;2023-02-08T09:06:47;36.27;;;13.90;;
17832;SDS011;9041;49.718;21.798;2023-02-08T09:09:14;47.77;;;16.10;;
17832;SDS011;9041;49.718;21.798;2023-02-08T09:11:41;17.53;;;7.20;;
17832;SDS011;9041;49.718;21.798;2023-02-08T09:14:10;29.70;;;11.57;;
17832;SDS011;9041;49.718;21.798;2023-02-08T09:16:38;28.23;;;10.20;;
17832;SDS011;9041;49.718;21.798;2023-02-08T09:19:06;23.07;;;9.40;;
17832;SDS011;9041;49.718;21.798;2023-02-08T09:21:34;17.33;;;7.73;;
17832;SDS011;9041;49.718;21.798;2023-02-08T09:24:01;23.70;;;9.37;;
17832;SDS011;9041;49.718;21.798;2023-02-08T09:26:28;13.97;;;6.40;;
17832;SDS011;9041;49.718;21.798;2023-02-08T09:28:55;12.53;;;6.47;;
17832;SDS011;9041;49.718;21.798;2023-02-08T09:31:24;11.63;;;6.10;;
17832;SDS011;9041;49.718;21.798;2023-02-08T09:33:52;15.37;;;7.03;;
17832;SDS011;9041;49.718;21.798;2023-02-08T09:36:21;17.00;;;6.77;;
17832;SDS011;9041;49.718;21.798;2023-02-08T09:38:49;15.57;;;6.83;;
17832;SDS011;9041;49.718;21.798;2023-02-08T09:41:23;15.83;;;6.60;;
17832;SDS011;9041;49.718;21.798;2023-02-08T09:43:59;15.87;;;7.80;;
17832;SDS011;9041;49.718;21.798;2023-02-08T09:46:37;18.47;;;6.47;;
17832;SDS011;9041;49.718;21.798;2023-02-08T09:49:07;16.27;;;6.90;;
17832;SDS011;9041;49.718;21.798;2023-02-08T09:51:37;17.07;;;7.03;;
17832;SDS011;9041;49.718;21.798;2023-02-08T09:54:06;14.57;;;7.07;;
17832;SDS011;9041;49.718;21.798;2023-02-08T09:56:37;11.67;;;6.07;;
17832;SDS011;9041;49.718;21.798;2023-02-08T09:59:07;17.37;;;7.17;;
17832;SDS011;9041;49.718;21.798;2023-02-08T10:01:39;13.40;;;6.17;;
17832;SDS011;9041;49.718;21.798;2023-02-08T10:04:08;19.73;;;7.87;;
17832;SDS011;9041;49.718;21.798;2023-02-08T10:06:38;20.33;;;7.60;;
17832;SDS011;9041;49.718;21.798;2023-02-08T10:09:06;21.97;;;9.07;;
17832;SDS011;9041;49.718;21.798;2023-02-08T10:11:45;21.97;;;8.10;;
17832;SDS011;9041;49.718;21.798;2023-02-08T10:14:21;12.10;;;5.47;;
17832;SDS011;9041;49.718;21.798;2023-02-08T10:17:33;15.60;;;7.87;;
17832;SDS011;9041;49.718;21.798;2023-02-08T10:20:07;15.83;;;7.73;;
17832;SDS011;9041;49.718;21.798;2023-02-08T10:22:43;14.10;;;6.63;;
17832;SDS011;9041;49.718;21.798;2023-02-08T10:25:23;15.77;;;7.30;;
17832;SDS011;9041;49.718;21.798;2023-02-08T10:27:57;20.20;;;11.03;;
17832;SDS011;9041;49.718;21.798;2023-02-08T10:30:35;22.53;;;10.40;;
17832;SDS011;9041;49.718;21.798;2023-02-08T10:33:08;20.03;;;7.37;;
17832;SDS011;9041;49.718;21.798;2023-02-08T10:35:40;13.30;;;7.10;;
17832;SDS011;9041;49.718;21.798;2023-02-08T10:38:16;18.57;;;9.00;;
17832;SDS011;9041;49.718;21.798;2023-02-08T10:40:49;13.17;;;5.87;;
17832;SDS011;9041;49.718;21.798;2023-02-08T10:43:18;15.17;;;7.13;;
17832;SDS011;9041;49.718;21.798;2023-02-08T10:45:50;17.10;;;7.10;;
17832;SDS011;9041;49.718;21.798;2023-02-08T10:48:23;17.03;;;8.00;;
17832;SDS011;9041;49.718;21.798;2023-02-08T10:50:55;18.50;;;7.33;;
17832;SDS011;9041;49.718;21.798;2023-02-08T10:53:21;16.53;;;6.43;;
17832;SDS011;9041;49.718;21.798;2023-02-08T10:55:48;20.40;;;7.60;;
17832;SDS011;9041;49.718;21.798;2023-02-08T10:58:16;16.60;;;7.63;;
17832;SDS011;9041;49.718;21.798;2023-02-08T11:00:43;17.07;;;6.90;;
17832;SDS011;9041;49.718;21.798;2023-02-08T11:03:15;16.93;;;7.83;;
17832;SDS011;9041;49.718;21.798;2023-02-08T11:05:45;18.60;;;7.77;;
17832;SDS011;9041;49.718;21.798;2023-02-08T11:08:13;14.90;;;6.70;;
17832;SDS011;9041;49.718;21.798;2023-02-08T11:10:43;17.37;;;8.00;;
17832;SDS011;9041;49.718;21.798;2023-02-08T11:13:16;19.77;;;7.43;;
17832;SDS011;9041;49.718;21.798;2023-02-08T11:15:44;22.80;;;9.13;;
17832;SDS011;9041;49.718;21.798;2023-02-08T11:18:17;26.13;;;10.10;;
17832;SDS011;9041;49.718;21.798;2023-02-08T11:20:47;20.87;;;8.60;;
17832;SDS011;9041;49.718;21.798;2023-02-08T11:23:18;27.37;;;11.00;;
17832;SDS011;9041;49.718;21.798;2023-02-08T11:25:47;22.60;;;8.97;;
17832;SDS011;9041;49.718;21.798;2023-02-08T11:28:21;18.37;;;8.70;;
17832;SDS011;9041;49.718;21.798;2023-02-08T11:30:54;15.90;;;6.77;;
17832;SDS011;9041;49.718;21.798;2023-02-08T11:33:21;14.77;;;7.37;;
17832;SDS011;9041;49.718;21.798;2023-02-08T11:35:59;16.90;;;7.33;;
17832;SDS011;9041;49.718;21.798;2023-02-08T11:38:28;16.57;;;7.03;;
17832;SDS011;9041;49.718;21.798;2023-02-08T11:40:56;16.50;;;7.90;;
17832;SDS011;9041;49.718;21.798;2023-02-08T11:43:25;18.47;;;7.70;;
17832;SDS011;9041;49.718;21.798;2023-02-08T11:45:55;13.27;;;7.27;;
17832;SDS011;9041;49.718;21.798;2023-02-08T11:48:24;22.67;;;8.27;;
17832;SDS011;9041;49.718;21.798;2023-02-08T11:50:52;19.80;;;8.60;;
17832;SDS011;9041;49.718;21.798;2023-02-08T11:53:22;21.63;;;7.87;;
17832;SDS011;9041;49.718;21.798;2023-02-08T11:56:06;23.97;;;8.70;;
17832;SDS011;9041;49.718;21.798;2023-02-08T11:58:41;19.23;;;7.93;;
17832;SDS011;9041;49.718;21.798;2023-02-08T12:01:16;17.33;;;7.90;;
17832;SDS011;9041;49.718;21.798;2023-02-08T12:03:44;19.17;;;8.57;;
17832;SDS011;9041;49.718;21.798;2023-02-08T12:06:21;18.60;;;7.77;;
17832;SDS011;9041;49.718;21.798;2023-02-08T12:09:13;16.27;;;7.37;;
17832;SDS011;9041;49.718;21.798;2023-02-08T12:11:48;15.30;;;7.17;;
17832;SDS011;9041;49.718;21.798;2023-02-08T12:14:25;16.40;;;7.83;;
17832;SDS011;9041;49.718;21.798;2023-02-08T12:19:57;25.73;;;10.07;;
17832;SDS011;9041;49.718;21.798;2023-02-08T12:22:30;30.63;;;10.27;;
17832;SDS011;9041;49.718;21.798;2023-02-08T12:25:03;24.93;;;9.83;;
17832;SDS011;9041;49.718;21.798;2023-02-08T12:27:41;27.63;;;11.63;;
17832;SDS011;9041;49.718;21.798;2023-02-08T12:30:16;26.70;;;9.43;;
17832;SDS011;9041;49.718;21.798;2023-02-08T12:32:54;24.50;;;10.77;;
17832;SDS011;9041;49.718;21.798;2023-02-08T12:35:46;34.20;;;12.97;;
17832;SDS011;9041;49.718;21.798;2023-02-08T12:38:18;31.80;;;11.90;;
17832;SDS011;9041;49.718;21.798;2023-02-08T12:41:12;23.87;;;10.97;;
17832;SDS011;9041;49.718;21.798;2023-02-08T12:43:48;20.73;;;8.77;;
17832;SDS011;9041;49.718;21.798;2023-02-08T12:46:21;24.37;;;9.33;;
17832;SDS011;9041;49.718;21.798;2023-02-08T12:49:24;22.20;;;8.60;;
17832;SDS011;9041;49.718;21.798;2023-02-08T12:51:57;25.40;;;10.53;;
17832;SDS011;9041;49.718;21.798;2023-02-08T12:54:32;35.20;;;11.97;;
17832;SDS011;9041;49.718;21.798;2023-02-08T12:57:01;25.80;;;9.60;;
17832;SDS011;9041;49.718;21.798;2023-02-08T12:59:32;20.73;;;8.87;;
17832;SDS011;9041;49.718;21.798;2023-02-08T13:02:01;21.60;;;8.57;;
17832;SDS011;9041;49.718;21.798;2023-02-08T13:04:35;26.30;;;9.13;;
17832;SDS011;9041;49.718;21.798;2023-02-08T13:07:09;28.87;;;11.67;;
17832;SDS011;9041;49.718;21.798;2023-02-08T13:09:39;22.50;;;9.57;;
17832;SDS011;9041;49.718;21.798;2023-02-08T13:12:12;31.13;;;11.63;;
17832;SDS011;9041;49.718;21.798;2023-02-08T13:14:42;27.47;;;10.10;;
17832;SDS011;9041;49.718;21.798;2023-02-08T13:17:12;27.27;;;10.17;;
17832;SDS011;9041;49.718;21.798;2023-02-08T13:19:49;27.17;;;12.33;;
17832;SDS011;9041;49.718;21.798;2023-02-08T13:22:19;24.87;;;9.77;;
17832;SDS011;9041;49.718;21.798;2023-02-08T13:24:47;23.40;;;10.90;;
17832;SDS011;9041;49.718;21.798;2023-02-08T13:27:16;24.83;;;10.43;;
17832;SDS011;9041;49.718;21.798;2023-02-08T13:29:45;26.53;;;10.13;;
17832;SDS011;9041;49.718;21.798;2023-02-08T13:32:17;26.03;;;9.57;;
17832;SDS011;9041;49.718;21.798;2023-02-08T13:35:10;31.90;;;11.43;;
17832;SDS011;9041;49.718;21.798;2023-02-08T13:37:39;25.50;;;10.67;;
17832;SDS011;9041;49.718;21.798;2023-02-08T13:40:07;29.20;;;11.37;;
17832;SDS011;9041;49.718;21.798;2023-02-08T13:42:47;32.57;;;11.33;;
17832;SDS011;9041;49.718;21.798;2023-02-08T13:45:21;29.23;;;11.67;;
17832;SDS011;9041;49.718;21.798;2023-02-08T13:47:55;33.90;;;14.37;;
17832;SDS011;9041;49.718;21.798;2023-02-08T13:50:37;22.07;;;9.13;;
17832;SDS011;9041;49.718;21.798;2023-02-08T13:53:10;21.10;;;9.20;;
17832;SDS011;9041;49.718;21.798;2023-02-08T13:55:40;25.17;;;10.97;;
17832;SDS011;9041;49.718;21.798;2023-02-08T14:01:32;27.27;;;9.80;;
17832;SDS011;9041;49.718;21.798;2023-02-08T14:06:44;24.40;;;11.00;;
17832;SDS011;9041;49.718;21.798;2023-02-08T14:09:15;23.83;;;10.77;;
17832;SDS011;9041;49.718;21.798;2023-02-08T14:11:46;22.63;;;10.67;;
17832;SDS011;9041;49.718;21.798;2023-02-08T14:14:15;22.10;;;10.00;;
17832;SDS011;9041;49.718;21.798;2023-02-08T14:16:44;22.47;;;10.40;;
17832;SDS011;9041;49.718;21.798;2023-02-08T14:22:00;25.80;;;11.07;;
17832;SDS011;9041;49.718;21.798;2023-02-08T14:24:29;19.60;;;9.37;;
17832;SDS011;9041;49.718;21.798;2023-02-08T14:27:04;33.13;;;13.47;;
17832;SDS011;9041;49.718;21.798;2023-02-08T14:29:32;26.30;;;12.57;;
17832;SDS011;9041;49.718;21.798;2023-02-08T14:32:00;48.97;;;20.07;;
17832;SDS011;9041;49.718;21.798;2023-02-08T14:34:29;26.10;;;12.23;;
17832;SDS011;9041;49.718;21.798;2023-02-08T14:36:58;34.13;;;12.03;;
17832;SDS011;9041;49.718;21.798;2023-02-08T14:39:26;28.80;;;12.67;;
17832;SDS011;9041;49.718;21.798;2023-02-08T14:41:54;31.07;;;11.90;;
17832;SDS011;9041;49.718;21.798;2023-02-08T14:50:40;31.33;;;13.80;;
17832;SDS011;9041;49.718;21.798;2023-02-08T14:53:16;39.53;;;17.07;;
17832;SDS011;9041;49.718;21.798;2023-02-08T14:55:46;39.67;;;15.90;;
17832;SDS011;9041;49.718;21.798;2023-02-08T14:58:19;44.47;;;16.47;;
17832;SDS011;9041;49.718;21.798;2023-02-08T15:00:50;44.13;;;17.23;;
17832;SDS011;9041;49.718;21.798;2023-02-08T15:03:18;43.30;;;17.03;;
17832;SDS011;9041;49.718;21.798;2023-02-08T15:05:54;41.93;;;17.33;;